Time;durP1;ratioP1;P1;durP2;ratioP2;P2;SDS_P1;SDS_P2;PMS_P1;PMS_P2;Temp;Humidity;BMP_temperature;BMP_pressure;BME280_temperature;BME280_humidity;BME280_pressure;Samples;Min_cycle;Max_cycle;Signal;HPM_P1;HPM_P2
2022/04/25 00:01:22;;;;;;;1.92;0.90;;;17.20;93.90;;;;;;6278805;22;20075;-66
2022/04/25 00:03:49;;;;;;;1.92;0.73;;;17.30;94.10;;;;;;6306525;22;20470;-66
2022/04/25 00:06:17;;;;;;;2.88;0.80;;;17.30;94.00;;;;;;6306259;22;20026;-66
2022/04/25 00:08:44;;;;;;;2.35;0.85;;;17.40;93.80;;;;;;6306299;22;20070;-66
2022/04/25 00:11:11;;;;;;;1.63;0.70;;;17.40;93.80;;;;;;6279142;22;19995;-66
2022/04/25 00:13:38;;;;;;;3.00;0.90;;;17.40;93.40;;;;;;6278800;22;20017;-66
2022/04/25 00:16:05;;;;;;;2.33;0.85;;;17.40;93.00;;;;;;6306350;22;19999;-66
2022/04/25 00:18:33;;;;;;;1.45;0.73;;;17.40;92.60;;;;;;6279045;22;19999;-66
2022/04/25 00:21:00;;;;;;;1.30;0.93;;;17.50;93.00;;;;;;6306046;22;19995;-66
2022/04/25 00:23:27;;;;;;;0.65;0.55;;;17.50;93.00;;;;;;6253638;22;20003;-66
2022/04/25 00:25:55;;;;;;;0.70;0.70;;;17.50;92.60;;;;;;6253345;22;20007;-66
2022/04/25 00:28:22;;;;;;;2.15;1.00;;;17.60;92.70;;;;;;6305559;22;20007;-66
2022/04/25 00:30:49;;;;;;;2.38;0.75;;;17.70;92.80;;;;;;6305943;22;20055;-66
2022/04/25 00:33:16;;;;;;;1.02;0.68;;;17.70;93.00;;;;;;6305395;22;20022;-66
2022/04/25 00:35:43;;;;;;;2.42;0.70;;;17.70;92.80;;;;;;6278910;22;20348;-66
2022/04/25 00:38:11;;;;;;;1.98;0.77;;;17.70;92.50;;;;;;6278407;22;20039;-66
2022/04/25 00:40:38;;;;;;;0.85;0.60;;;17.80;92.50;;;;;;6278725;22;20387;-66
2022/04/25 00:43:06;;;;;;;1.08;0.63;;;17.70;92.40;;;;;;6305691;22;19999;-66
2022/04/25 00:45:34;;;;;;;1.10;0.88;;;17.80;92.30;;;;;;6305781;22;20007;-66
2022/04/25 00:48:01;;;;;;;2.40;0.90;;;17.80;92.10;;;;;;6252606;22;20000;-66
2022/04/25 00:50:31;;;;;;;0.82;0.80;;;17.80;92.10;;;;;;6278398;22;20003;-66
2022/04/25 00:52:58;;;;;;;;;;;17.90;91.90;;;;;;6279167;22;20506;-66
2022/04/25 00:55:25;;;;;;;2.00;0.70;;;17.90;91.30;;;;;;6305704;22;20364;-66
2022/04/25 00:57:54;;;;;;;1.23;0.70;;;18.00;90.90;;;;;;6253065;22;20406;-66
2022/04/25 01:00:22;;;;;;;2.28;0.73;;;18.00;90.70;;;;;;6305763;22;20000;-66
2022/04/25 01:02:49;;;;;;;0.52;0.50;;;18.10;90.70;;;;;;6305308;22;20007;-66
2022/04/25 01:05:16;;;;;;;2.13;0.80;;;18.10;90.40;;;;;;6278132;22;20042;-66
2022/04/25 01:07:43;;;;;;;2.55;0.85;;;18.20;90.20;;;;;;6305264;22;20019;-66
2022/04/25 01:10:11;;;;;;;1.48;0.70;;;18.20;90.20;;;;;;6305044;22;20003;-66
2022/04/25 01:12:38;;;;;;;2.50;0.80;;;18.30;90.20;;;;;;6305103;22;20011;-65
2022/04/25 01:15:10;;;;;;;0.98;0.80;;;18.30;89.90;;;;;;6305364;22;19999;-66
2022/04/25 01:17:37;;;;;;;1.92;0.77;;;18.30;90.10;;;;;;6305258;22;19999;-65
2022/04/25 01:20:05;;;;;;;1.30;0.73;;;18.30;90.10;;;;;;6277914;22;20014;-66
2022/04/25 01:22:47;;;;;;;3.45;0.90;;;18.40;89.90;;;;;;6304915;22;20003;-66
2022/04/25 01:28:04;;;;;;;1.33;0.88;;;18.60;89.80;;;;;;6305028;22;20354;-66
2022/04/25 01:30:33;;;;;;;1.20;0.90;;;18.60;89.20;;;;;;6278365;22;20076;-65
2022/04/25 01:33:01;;;;;;;0.93;0.75;;;18.70;88.90;;;;;;6304951;22;20013;-65
2022/04/25 01:35:28;;;;;;;1.52;1.10;;;18.70;89.10;;;;;;6278201;22;19999;-65
2022/04/25 01:37:55;;;;;;;0.80;0.80;;;18.80;89.00;;;;;;6305298;22;20088;-66
2022/04/25 01:40:24;;;;;;;2.38;0.93;;;18.80;88.70;;;;;;6304865;22;20083;-66
2022/04/25 01:42:51;;;;;;;1.33;0.85;;;18.80;88.90;;;;;;6305071;22;20003;-66
2022/04/25 01:45:20;;;;;;;2.25;0.93;;;18.80;88.60;;;;;;6305076;22;20003;-66
2022/04/25 01:47:47;;;;;;;2.35;0.80;;;18.80;88.50;;;;;;6304879;22;20008;-66
2022/04/25 01:50:14;;;;;;;1.17;0.77;;;18.80;88.30;;;;;;6304836;22;20004;-66
2022/04/25 01:52:41;;;;;;;1.33;0.90;;;18.80;88.10;;;;;;6304880;22;20026;-66
2022/04/25 01:55:09;;;;;;;2.13;0.70;;;18.80;88.10;;;;;;6278052;22;20074;-66
2022/04/25 01:57:36;;;;;;;2.28;0.93;;;18.80;88.30;;;;;;6304972;22;20003;-66
2022/04/25 02:00:04;;;;;;;1.77;0.90;;;18.80;88.10;;;;;;6304237;22;20342;-66
2022/04/25 02:02:31;;;;;;;1.75;0.88;;;18.80;88.10;;;;;;6304943;22;20022;-66
2022/04/25 02:04:59;;;;;;;2.47;0.75;;;18.80;87.40;;;;;;6305025;22;20000;-66
2022/04/25 02:07:26;;;;;;;3.22;0.90;;;18.80;87.60;;;;;;6305071;22;20000;-66
2022/04/25 02:09:53;;;;;;;1.63;0.98;;;18.80;87.70;;;;;;6304583;22;20437;-66
2022/04/25 02:12:22;;;;;;;1.65;0.80;;;18.90;87.50;;;;;;6304594;22;20001;-66
2022/04/25 02:14:49;;;;;;;2.58;0.80;;;18.90;86.70;;;;;;6277314;22;20431;-66
2022/04/25 02:17:16;;;;;;;1.85;0.93;;;19.00;86.60;;;;;;6277048;22;20045;-66
2022/04/25 02:19:47;;;;;;;2.80;0.77;;;19.00;86.30;;;;;;6304261;22;20018;-66
2022/04/25 02:22:16;;;;;;;2.83;0.82;;;19.00;85.60;;;;;;6278231;22;20015;-66
2022/04/25 02:24:43;;;;;;;2.03;0.73;;;19.10;84.80;;;;;;6304384;22;19996;-66
2022/04/25 02:27:10;;;;;;;3.42;0.82;;;19.10;85.70;;;;;;6304637;22;20027;-66
2022/04/25 02:29:41;;;;;;;3.15;1.17;;;19.20;84.90;;;;;;6277845;22;20002;-66
2022/04/25 02:32:12;;;;;;;2.17;0.80;;;19.20;83.00;;;;;;6277298;22;20015;-66
2022/04/25 02:34:41;;;;;;;4.18;1.40;;;19.30;83.40;;;;;;6304313;22;20018;-66
2022/04/25 02:37:08;;;;;;;1.58;1.00;;;19.30;82.70;;;;;;6277793;22;20468;-67
2022/04/25 02:39:35;;;;;;;2.67;1.10;;;19.30;82.40;;;;;;6304171;22;20019;-67
2022/04/25 02:42:02;;;;;;;1.27;0.90;;;19.20;82.60;;;;;;6276416;22;20089;-66
2022/04/25 02:44:29;;;;;;;2.28;1.02;;;19.20;82.90;;;;;;6276384;22;19995;-66
2022/04/25 02:46:57;;;;;;;1.92;1.20;;;19.30;82.00;;;;;;6304215;22;20003;-66
2022/04/25 02:49:24;;;;;;;4.80;1.25;;;19.30;81.70;;;;;;6304424;22;20045;-66
2022/04/25 02:51:51;;;;;;;3.60;0.90;;;19.20;79.50;;;;;;6277019;22;20011;-66
2022/04/25 02:54:18;;;;;;;1.98;0.70;;;19.20;78.50;;;;;;6304799;22;20003;-66
2022/04/25 02:56:45;;;;;;;2.40;1.02;;;19.20;78.60;;;;;;6304241;22;20334;-66
2022/04/25 02:59:12;;;;;;;4.97;0.80;;;19.30;79.20;;;;;;6277221;22;20023;-66
2022/04/25 03:01:40;;;;;;;3.00;0.90;;;19.30;76.30;;;;;;6277434;22;19996;-66
2022/04/25 03:04:07;;;;;;;4.28;0.90;;;19.30;76.30;;;;;;6304597;22;20425;-66
2022/04/25 03:06:35;;;;;;;3.92;1.00;;;19.30;76.60;;;;;;6277415;22;19999;-66
2022/04/25 03:09:02;;;;;;;2.60;1.00;;;19.30;76.00;;;;;;6302342;22;20426;-66
2022/04/25 03:11:29;;;;;;;3.30;0.88;;;19.30;76.50;;;;;;6304451;22;20306;-66
2022/04/25 03:13:56;;;;;;;1.85;0.60;;;19.20;75.20;;;;;;6304697;22;20094;-66
2022/04/25 03:16:23;;;;;;;3.80;1.00;;;19.30;74.60;;;;;;6277040;22;20003;-66
2022/04/25 03:18:51;;;;;;;1.35;0.63;;;19.30;75.10;;;;;;6277669;22;20004;-67
2022/04/25 03:21:18;;;;;;;2.17;0.80;;;19.30;75.60;;;;;;6304039;22;20057;-66
2022/04/25 03:23:45;;;;;;;1.80;0.80;;;19.30;73.80;;;;;;6304517;22;20082;-66
2022/04/25 03:26:12;;;;;;;3.55;0.95;;;19.30;75.00;;;;;;6277850;22;20280;-66
2022/04/25 03:28:39;;;;;;;4.20;1.17;;;19.30;74.50;;;;;;6304669;22;20004;-66
2022/04/25 03:31:07;;;;;;;1.42;0.60;;;19.30;75.10;;;;;;6252005;22;20010;-66
2022/04/25 03:33:35;;;;;;;2.42;0.98;;;19.40;75.70;;;;;;6251290;22;20022;-66
2022/04/25 03:36:03;;;;;;;5.30;0.88;;;19.30;75.70;;;;;;6304868;22;20030;-66
2022/04/25 03:38:30;;;;;;;2.25;0.90;;;19.40;74.40;;;;;;6277168;22;20019;-66
2022/04/25 03:40:59;;;;;;;1.92;0.68;;;19.40;75.20;;;;;;6303928;22;20010;-66
2022/04/25 03:43:26;;;;;;;1.10;0.65;;;19.40;75.40;;;;;;6303558;22;20457;-66
2022/04/25 03:45:55;;;;;;;4.15;0.80;;;19.40;75.30;;;;;;6304298;22;20042;-66
2022/04/25 03:48:22;;;;;;;2.20;0.88;;;19.40;74.20;;;;;;6304061;22;20074;-66
2022/04/25 03:50:49;;;;;;;2.05;0.90;;;19.40;74.40;;;;;;6304286;22;20004;-66
2022/04/25 03:53:16;;;;;;;2.08;0.80;;;19.40;73.90;;;;;;6304162;22;20011;-66
2022/04/25 03:58:29;;;;;;;2.45;0.70;;;19.40;75.10;;;;;;6306446;22;20018;-66
2022/04/25 04:00:56;;;;;;;3.67;0.90;;;19.40;74.00;;;;;;6306157;22;20007;-66
2022/04/25 04:03:23;;;;;;;2.50;0.90;;;19.50;74.70;;;;;;6305939;22;20042;-66
2022/04/25 04:05:51;;;;;;;3.28;1.33;;;19.50;75.40;;;;;;6306052;22;20016;-66
2022/04/25 04:08:18;;;;;;;2.20;0.88;;;19.40;75.50;;;;;;6305628;22;20007;-66
2022/04/25 04:10:45;;;;;;;4.53;0.88;;;19.50;75.90;;;;;;6278667;22;20307;-66
2022/04/25 04:13:12;;;;;;;1.90;0.85;;;19.50;75.40;;;;;;6306301;22;20034;-67
2022/04/25 04:15:40;;;;;;;2.97;0.80;;;19.50;75.90;;;;;;6305810;22;20391;-66
2022/04/25 04:18:07;;;;;;;2.95;0.90;;;19.50;76.50;;;;;;6305589;22;20004;-66
2022/04/25 04:20:35;;;;;;;2.17;0.70;;;19.60;75.90;;;;;;6305757;22;19999;-66
2022/04/25 04:23:03;;;;;;;1.85;0.80;;;19.60;74.80;;;;;;6305841;22;20044;-68
2022/04/25 04:25:32;;;;;;;3.25;1.00;;;19.70;74.70;;;;;;6253635;22;20006;-66
2022/04/25 04:27:59;;;;;;;2.30;0.80;;;19.70;75.80;;;;;;6306192;22;20011;-66
2022/04/25 04:30:26;;;;;;;2.95;0.88;;;19.70;75.10;;;;;;6305894;22;20000;-66
2022/04/25 04:32:54;;;;;;;1.60;0.68;;;19.70;75.60;;;;;;6278467;22;20027;-66
2022/04/25 04:38:09;;;;;;;1.73;0.82;;;19.70;74.30;;;;;;6235978;22;20034;-66
2022/04/25 04:40:36;;;;;;;2.15;1.00;;;19.70;72.80;;;;;;6305904;22;19995;-66
2022/04/25 04:43:03;;;;;;;1.33;0.80;;;19.70;70.90;;;;;;6279033;22;20078;-66
2022/04/25 04:45:30;;;;;;;3.53;1.42;;;19.70;71.90;;;;;;6305789;22;20102;-66
2022/04/25 04:47:58;;;;;;;2.22;0.82;;;19.80;72.40;;;;;;6278272;22;20418;-66
2022/04/25 04:50:25;;;;;;;1.23;0.60;;;19.80;71.00;;;;;;6305499;22;20003;-66
2022/04/25 04:52:59;;;;;;;3.30;0.70;;;19.70;70.30;;;;;;6305123;22;20535;-67
2022/04/25 04:55:27;;;;;;;1.85;0.73;;;19.70;68.30;;;;;;6280289;22;20007;-67
2022/04/25 04:57:55;;;;;;;1.67;0.60;;;19.70;67.30;;;;;;6278345;22;20018;-66
2022/04/25 05:00:23;;;;;;;2.05;0.90;;;19.70;67.40;;;;;;6305216;22;20023;-67
2022/04/25 05:02:51;;;;;;;2.42;0.98;;;19.60;68.70;;;;;;6304812;22;20433;-67
2022/04/25 05:05:18;;;;;;;1.63;0.80;;;19.60;69.50;;;;;;6304817;22;20007;-67
2022/04/25 05:07:45;;;;;;;1.23;0.65;;;19.60;68.70;;;;;;6277878;22;20031;-66
2022/04/25 05:10:13;;;;;;;2.15;0.60;;;19.50;68.70;;;;;;6305605;22;20002;-66
2022/04/25 05:12:57;;;;;;;3.88;1.33;;;19.50;67.60;;;;;;6305390;22;20011;-66
2022/04/25 05:15:24;;;;;;;3.72;0.85;;;19.60;68.50;;;;;;6278870;22;20026;-66
2022/04/25 05:17:55;;;;;;;2.35;0.80;;;19.60;68.70;;;;;;6305229;22;19999;-66
2022/04/25 05:20:23;;;;;;;1.10;0.60;;;19.60;67.50;;;;;;6305049;22;20087;-66
2022/04/25 05:22:51;;;;;;;1.95;0.73;;;19.60;67.70;;;;;;6305375;22;20004;-66
2022/04/25 05:25:19;;;;;;;2.00;0.90;;;19.70;68.10;;;;;;6277961;22;20017;-67
2022/04/25 05:27:48;;;;;;;2.60;0.90;;;19.60;68.80;;;;;;6305630;22;20337;-66
2022/04/25 05:30:16;;;;;;;2.65;0.80;;;19.60;67.60;;;;;;6252095;22;20316;-66
2022/04/25 05:33:02;;;;;;;2.58;0.80;;;19.60;67.10;;;;;;6305149;22;20086;-66
2022/04/25 05:35:36;;;;;;;0.93;0.60;;;19.60;68.00;;;;;;6305401;22;19996;-66
2022/04/25 05:38:06;;;;;;;1.38;0.60;;;19.60;67.50;;;;;;6278208;22;20129;-66
2022/04/25 05:40:33;;;;;;;1.80;0.80;;;19.60;67.70;;;;;;6305060;22;20049;-66
2022/04/25 05:43:02;;;;;;;1.23;0.73;;;19.60;67.90;;;;;;6304824;22;20010;-66
2022/04/25 05:45:29;;;;;;;1.85;0.77;;;19.60;68.90;;;;;;6253177;22;20030;-66
2022/04/25 05:47:57;;;;;;;1.40;0.73;;;19.60;67.80;;;;;;6304921;22;20007;-66
2022/04/25 05:53:11;;;;;;;1.00;0.60;;;19.70;67.80;;;;;;6305418;22;20063;-67
2022/04/25 05:55:38;;;;;;;2.10;0.60;;;19.70;66.80;;;;;;6305114;22;19995;-66
2022/04/25 05:58:08;;;;;;;1.00;0.60;;;19.70;66.40;;;;;;6253052;22;20002;-66
2022/04/25 06:00:35;;;;;;;;;;;19.70;65.50;;;;;;6305426;22;20332;-66
2022/04/25 06:03:02;;;;;;;1.95;0.73;;;19.70;66.50;;;;;;6305515;22;19903;-66
2022/04/25 06:05:29;;;;;;;1.83;0.80;;;19.70;66.40;;;;;;6277768;22;20022;-66
2022/04/25 06:07:57;;;;;;;1.13;0.70;;;19.70;66.50;;;;;;6277851;22;19999;-66
2022/04/25 06:10:25;;;;;;;1.70;0.80;;;19.70;65.70;;;;;;6305132;22;20007;-66
2022/04/25 06:12:53;;;;;;;1.73;0.82;;;19.70;66.10;;;;;;6277820;22;20011;-66
2022/04/25 06:15:24;;;;;;;3.97;0.70;;;19.70;65.10;;;;;;6304477;22;20003;-66
2022/04/25 06:17:52;;;;;;;1.73;0.80;;;19.70;64.10;;;;;;6303119;22;20014;-67
2022/04/25 06:20:19;;;;;;;3.90;0.90;;;19.70;65.20;;;;;;6302208;22;20407;-67
2022/04/25 06:22:57;;;;;;;3.70;1.10;;;19.60;66.40;;;;;;6303774;22;20338;-68
2022/04/25 06:25:26;;;;;;;1.10;0.60;;;19.60;66.20;;;;;;6303937;22;19999;-67
2022/04/25 06:27:54;;;;;;;2.42;1.10;;;19.60;65.00;;;;;;6303395;22;20302;-66
2022/04/25 06:30:28;;;;;;;2.75;1.00;;;19.60;65.90;;;;;;6303159;22;19996;-66
2022/04/25 06:32:55;;;;;;;2.60;0.90;;;19.60;66.80;;;;;;6301886;22;20015;-66
2022/04/25 06:35:23;;;;;;;1.58;0.80;;;19.60;67.20;;;;;;6275895;22;19999;-66
2022/04/25 06:37:50;;;;;;;1.65;1.23;;;19.60;67.60;;;;;;6299409;22;20008;-67
2022/04/25 06:40:18;;;;;;;2.55;1.10;;;19.60;68.30;;;;;;6302550;22;19999;-65
2022/04/25 06:42:46;;;;;;;4.15;1.02;;;19.60;67.50;;;;;;6302760;22;20003;-64
2022/04/25 06:45:14;;;;;;;3.35;0.90;;;19.50;68.20;;;;;;6303570;22;20052;-64
2022/04/25 06:47:41;;;;;;;3.38;1.10;;;19.50;68.80;;;;;;6276309;22;20007;-65
2022/04/25 06:50:09;;;;;;;3.80;1.00;;;19.50;68.80;;;;;;6302762;22;20003;-65
2022/04/25 06:52:36;;;;;;;2.45;0.98;;;19.50;69.00;;;;;;6303769;22;20011;-65
2022/04/25 06:55:07;;;;;;;2.97;1.20;;;19.50;69.40;;;;;;6251435;22;20377;-66
2022/04/25 06:57:35;;;;;;;3.10;1.20;;;19.50;69.60;;;;;;6277058;22;20094;-67
2022/04/25 07:00:08;;;;;;;1.52;0.93;;;19.50;69.90;;;;;;6273847;22;19999;-67
2022/04/25 07:02:36;;;;;;;3.95;1.10;;;19.50;70.00;;;;;;6302460;22;20007;-67
2022/04/25 07:05:06;;;;;;;5.82;1.00;;;19.50;70.10;;;;;;6301901;22;20481;-67
2022/04/25 07:07:33;;;;;;;1.75;1.00;;;19.50;69.70;;;;;;6302917;22;20430;-67
2022/04/25 07:10:00;;;;;;;3.47;1.10;;;19.40;69.90;;;;;;6302598;22;20006;-67
2022/04/25 07:12:28;;;;;;;2.92;1.10;;;19.50;70.80;;;;;;6302261;22;20042;-66
2022/04/25 07:14:55;;;;;;;2.47;1.10;;;19.40;69.80;;;;;;6249921;22;20007;-68
2022/04/25 07:17:22;;;;;;;3.08;1.10;;;19.40;69.70;;;;;;6302721;22;20327;-66
2022/04/25 10:46:15;;;;;;;4.30;1.30;;;18.90;73.60;;;;;;6304733;22;19952;-67
2022/04/25 10:49:04;;;;;;;1.92;1.13;;;18.90;74.00;;;;;;6304098;22;20031;-66
2022/04/25 10:51:38;;;;;;;3.83;1.40;;;18.90;74.30;;;;;;6304533;22;19996;-66
2022/04/25 10:54:08;;;;;;;4.78;1.50;;;18.90;74.90;;;;;;6304185;22;20016;-67
2022/04/25 10:56:35;;;;;;;3.78;1.60;;;18.90;75.70;;;;;;6252169;22;20007;-67
2022/04/25 10:59:32;;;;;;;4.65;1.40;;;18.90;75.00;;;;;;6277268;22;20004;-67
2022/04/25 11:01:59;;;;;;;6.15;1.67;;;18.80;74.60;;;;;;6272805;22;20008;-67
2022/04/25 11:04:26;;;;;;;3.58;1.70;;;18.80;75.00;;;;;;6305735;22;20030;-67
2022/04/25 11:07:24;;;;;;;2.90;1.55;;;18.90;74.60;;;;;;6254054;22;20010;-67
2022/04/25 11:09:51;;;;;;;4.95;1.42;;;18.80;75.00;;;;;;6304328;22;20039;-67
2022/04/25 11:12:19;;;;;;;3.50;1.38;;;18.80;75.30;;;;;;6279709;22;20011;-67
2022/04/25 11:15:02;;;;;;;3.95;1.50;;;18.80;75.20;;;;;;6265687;22;20022;-67
2022/04/25 11:17:30;;;;;;;4.40;1.50;;;18.80;75.50;;;;;;6280139;22;19999;-67
2022/04/25 11:19:57;;;;;;;4.70;1.60;;;18.80;76.50;;;;;;6279506;22;20431;-66
2022/04/25 11:22:38;;;;;;;2.03;1.40;;;18.70;77.40;;;;;;6279735;22;20003;-67
2022/04/25 11:25:26;;;;;;;4.13;1.60;;;18.70;76.20;;;;;;6306855;22;20000;-67
2022/04/25 11:28:07;;;;;;;5.00;1.75;;;18.60;76.30;;;;;;6306441;22;20322;-65
2022/04/25 11:30:35;;;;;;;5.63;1.80;;;18.60;77.20;;;;;;6306200;22;20391;-66
2022/04/25 11:33:09;;;;;;;4.25;1.63;;;18.60;76.90;;;;;;6305882;22;20404;-67
2022/04/25 11:35:39;;;;;;;3.95;1.63;;;18.60;76.80;;;;;;6278962;22;20003;-66
2022/04/25 11:38:06;;;;;;;6.55;1.52;;;18.50;77.20;;;;;;6306366;22;20322;-67
2022/04/25 11:40:34;;;;;;;4.05;1.50;;;18.40;77.40;;;;;;6252850;22;20018;-66
2022/04/25 11:43:03;;;;;;;3.17;1.45;;;18.40;77.10;;;;;;6306203;22;20003;-67
2022/04/25 11:45:31;;;;;;;6.13;1.85;;;18.40;77.10;;;;;;6280078;22;20006;-66
2022/04/25 11:47:59;;;;;;;4.25;1.60;;;18.40;77.40;;;;;;6306046;22;20007;-66
2022/04/25 11:50:27;;;;;;;3.13;1.58;;;18.40;77.30;;;;;;6306200;22;20003;-67
2022/04/25 11:52:56;;;;;;;7.20;1.67;;;18.30;78.10;;;;;;6306208;22;20037;-67
2022/04/25 11:55:34;;;;;;;4.82;2.15;;;18.30;78.10;;;;;;6278969;22;20373;-66
2022/04/25 11:58:01;;;;;;;4.90;1.60;;;18.30;78.50;;;;;;6306232;22;20000;-66
2022/04/25 12:00:28;;;;;;;3.65;1.52;;;18.30;78.70;;;;;;6305656;22;20316;-66
2022/04/25 12:02:56;;;;;;;7.65;2.50;;;18.30;78.70;;;;;;6306610;22;20009;-66
2022/04/25 12:05:31;;;;;;;5.20;1.80;;;18.30;79.10;;;;;;6306611;22;20181;-68
2022/04/25 12:16:14;;;;;;;4.45;1.92;;;18.10;80.10;;;;;;6306272;22;20017;-66
2022/04/25 12:18:51;;;;;;;7.47;1.90;;;18.10;79.90;;;;;;6278815;22;20007;-66
2022/04/25 12:21:19;;;;;;;5.22;1.75;;;18.10;80.40;;;;;;6305855;22;20422;-66
2022/04/25 12:23:51;;;;;;;3.72;1.60;;;18.10;80.60;;;;;;6306400;22;20010;-66
2022/04/25 12:26:19;;;;;;;10.00;2.03;;;18.10;80.10;;;;;;6278580;22;20422;-66
2022/04/25 12:28:57;;;;;;;3.10;1.60;;;18.00;80.60;;;;;;6305696;22;20010;-66
2022/04/25 12:31:24;;;;;;;3.45;1.35;;;18.00;79.70;;;;;;6306004;22;20076;-66
2022/04/25 12:33:51;;;;;;;6.03;1.75;;;18.00;79.90;;;;;;6278474;22;20055;-67
2022/04/25 12:36:25;;;;;;;3.53;1.60;;;18.00;80.30;;;;;;6305550;22;20003;-67
2022/04/25 12:38:55;;;;;;;4.63;1.80;;;17.90;80.60;;;;;;6305415;22;20018;-66
2022/04/25 12:41:33;;;;;;;2.85;1.95;;;18.00;81.00;;;;;;6305319;22;20068;-66
2022/04/25 12:44:12;;;;;;;4.15;2.03;;;17.90;81.40;;;;;;6278826;22;20031;-66
2022/04/25 12:46:42;;;;;;;6.90;1.98;;;17.90;82.00;;;;;;6305903;22;20018;-65
2022/04/25 12:49:11;;;;;;;;;;;17.80;82.40;;;;;;6305454;22;20010;-66
2022/04/25 12:51:43;;;;;;;4.47;1.95;;;17.80;82.70;;;;;;6278662;22;19899;-67
2022/04/25 12:54:32;;;;;;;4.38;2.30;;;17.80;83.00;;;;;;6305622;22;20011;-66
2022/04/25 12:57:17;;;;;;;4.75;2.10;;;17.80;83.10;;;;;;6305994;22;20038;-66
2022/04/25 12:59:54;;;;;;;4.38;2.22;;;17.80;83.50;;;;;;6305371;22;20086;-67
2022/04/25 13:02:22;;;;;;;3.95;2.08;;;17.80;83.70;;;;;;6305694;22;20075;-66
2022/04/25 13:04:58;;;;;;;4.43;2.05;;;17.70;83.80;;;;;;6305588;22;20426;-66
2022/04/25 13:07:31;;;;;;;6.32;2.20;;;17.70;84.10;;;;;;6278117;22;20049;-66
2022/04/25 13:10:02;;;;;;;5.97;2.00;;;17.70;84.70;;;;;;6304739;22;20415;-66
2022/04/25 13:12:40;;;;;;;5.38;2.20;;;17.70;84.80;;;;;;6278108;22;20014;-66
2022/04/25 13:15:09;;;;;;;4.70;2.42;;;17.70;85.20;;;;;;6278692;22;20003;-65
2022/04/25 13:17:39;;;;;;;3.30;2.20;;;17.70;85.40;;;;;;6278337;22;20056;-66
2022/04/25 13:20:07;;;;;;;4.28;2.30;;;17.70;85.40;;;;;;6278539;22;19995;-66
2022/04/25 13:22:35;;;;;;;4.60;2.10;;;17.70;85.40;;;;;;6253446;22;19999;-66
2022/04/25 13:25:02;;;;;;;6.65;2.67;;;17.70;85.60;;;;;;6304791;22;20032;-66
2022/04/25 13:27:30;;;;;;;4.97;2.83;;;17.80;85.80;;;;;;6305200;22;20468;-66
2022/04/25 13:29:57;;;;;;;6.07;2.88;;;17.70;85.80;;;;;;6277817;22;20034;-66
2022/04/25 13:32:26;;;;;;;6.85;2.97;;;17.80;85.50;;;;;;6304970;22;20011;-66
2022/04/25 13:34:53;;;;;;;5.95;2.83;;;17.80;85.50;;;;;;6305190;22;20428;-66
2022/04/25 13:37:20;;;;;;;5.57;2.97;;;17.80;85.50;;;;;;6304848;22;20022;-66
2022/04/25 13:39:48;;;;;;;5.68;2.78;;;17.80;85.40;;;;;;6304975;22;20023;-66
2022/04/25 13:42:16;;;;;;;5.07;2.83;;;17.80;85.60;;;;;;6277881;22;20019;-66
2022/04/25 13:44:44;;;;;;;6.40;3.17;;;17.70;85.50;;;;;;6305197;22;19999;-66
2022/04/25 13:47:11;;;;;;;6.00;2.80;;;17.70;85.80;;;;;;6305267;22;19995;-66
2022/04/25 13:49:38;;;;;;;7.90;3.25;;;17.70;85.80;;;;;;6277811;22;20003;-67
2022/04/25 13:52:06;;;;;;;6.07;3.33;;;17.70;85.80;;;;;;6304924;22;19999;-66
2022/04/25 13:54:33;;;;;;;6.40;3.60;;;17.70;85.80;;;;;;6304919;22;20414;-66
2022/04/25 13:57:01;;;;;;;7.95;3.65;;;17.70;85.60;;;;;;6304670;22;20078;-66
2022/04/25 13:59:28;;;;;;;7.75;3.53;;;17.70;85.80;;;;;;6304631;22;20026;-66
2022/04/25 14:01:55;;;;;;;8.05;3.72;;;17.70;85.90;;;;;;6304798;22;20017;-66
2022/04/25 14:04:23;;;;;;;6.78;3.10;;;17.70;86.00;;;;;;6305318;22;20270;-66
2022/04/25 14:06:50;;;;;;;6.00;3.33;;;17.70;86.20;;;;;;6304875;22;19999;-66
2022/04/25 14:09:18;;;;;;;5.47;3.00;;;17.70;86.00;;;;;;6304610;22;20010;-66
2022/04/25 14:11:46;;;;;;;7.25;3.67;;;17.70;86.20;;;;;;6304880;22;20410;-66
2022/04/25 14:14:13;;;;;;;5.60;3.70;;;17.70;86.20;;;;;;6305133;22;20011;-66
2022/04/25 14:16:41;;;;;;;5.97;3.40;;;17.70;86.10;;;;;;6305278;22;20041;-66
2022/04/25 14:19:08;;;;;;;8.68;3.42;;;17.70;86.00;;;;;;6277888;22;20006;-66
2022/04/25 14:21:36;;;;;;;6.95;3.35;;;17.70;85.80;;;;;;6277345;22;20007;-66
2022/04/25 14:24:03;;;;;;;9.45;3.70;;;17.70;86.20;;;;;;6304800;22;19999;-66
2022/04/25 14:26:34;;;;;;;7.30;3.50;;;17.60;85.70;;;;;;6305087;22;20372;-67
2022/04/25 14:29:01;;;;;;;8.43;3.90;;;17.60;85.80;;;;;;6278018;22;20039;-66
2022/04/25 14:31:28;;;;;;;8.38;3.47;;;17.50;85.60;;;;;;6304777;22;20003;-67
2022/04/25 14:33:56;;;;;;;8.20;3.47;;;17.50;85.60;;;;;;6304545;22;20038;-67
2022/04/25 14:36:23;;;;;;;8.13;3.47;;;17.50;85.70;;;;;;6304940;22;20006;-67
2022/04/25 14:38:50;;;;;;;7.28;3.05;;;17.60;85.60;;;;;;6304869;22;20003;-66
2022/04/25 14:41:17;;;;;;;10.15;3.63;;;17.60;85.80;;;;;;6277266;22;20434;-66
2022/04/25 14:43:44;;;;;;;6.85;3.20;;;17.60;85.80;;;;;;6304630;22;19999;-66
2022/04/25 14:46:14;;;;;;;6.95;3.08;;;17.60;85.90;;;;;;6304944;22;20027;-66
2022/04/25 14:48:41;;;;;;;8.65;3.72;;;17.60;86.00;;;;;;6277823;22;20403;-66
2022/04/25 14:56:39;;;;;;;5.05;2.83;;;17.70;86.30;;;;;;6304596;22;20170;-66
2022/04/25 14:59:07;;;;;;;8.82;3.45;;;17.70;86.50;;;;;;6304826;22;20060;-66
2022/04/25 15:01:34;;;;;;;7.93;3.28;;;17.70;86.60;;;;;;6304655;22;20003;-66
2022/04/25 15:04:02;;;;;;;7.68;3.20;;;17.70;86.70;;;;;;6304309;22;20003;-66
2022/04/25 15:06:29;;;;;;;6.43;3.22;;;17.70;86.60;;;;;;6304282;22;20011;-66
2022/04/25 15:08:56;;;;;;;6.70;3.50;;;17.70;86.60;;;;;;6277134;22;20082;-66
2022/04/25 15:11:23;;;;;;;4.25;2.65;;;17.60;86.50;;;;;;6304299;22;20003;-66
2022/04/25 15:13:50;;;;;;;8.02;3.00;;;17.70;86.30;;;;;;6277316;22;20105;-66
2022/04/25 15:16:18;;;;;;;7.47;2.92;;;17.60;86.00;;;;;;6304410;22;20023;-66
2022/04/25 15:18:45;;;;;;;8.27;3.00;;;17.60;85.90;;;;;;6304485;22;20011;-66
2022/04/25 15:21:12;;;;;;;5.50;1.77;;;17.70;85.80;;;;;;6304433;22;20057;-66
2022/04/25 15:23:40;;;;;;;3.95;1.42;;;17.70;86.00;;;;;;6304323;22;20007;-66
2022/04/25 15:26:10;;;;;;;3.58;1.40;;;17.70;86.00;;;;;;6304298;22;19995;-66
2022/04/25 15:28:37;;;;;;;4.88;1.30;;;17.70;86.20;;;;;;6304073;22;20010;-66
2022/04/25 15:31:05;;;;;;;3.65;1.70;;;17.80;86.60;;;;;;6304381;22;20003;-66
2022/04/25 15:33:32;;;;;;;8.38;1.70;;;17.80;86.40;;;;;;6277356;22;20007;-66
2022/04/25 15:35:59;;;;;;;2.22;1.10;;;17.80;86.70;;;;;;6304724;22;20000;-66
2022/04/25 15:38:27;;;;;;;1.88;1.00;;;17.80;86.80;;;;;;6304346;22;20003;-66
2022/04/25 15:40:55;;;;;;;3.00;1.30;;;17.80;86.40;;;;;;6303827;22;20011;-66
2022/04/25 15:43:22;;;;;;;2.38;0.80;;;17.80;86.30;;;;;;6303972;22;20082;-66
2022/04/25 15:45:49;;;;;;;2.03;0.93;;;17.80;83.20;;;;;;6304293;22;20116;-66
2022/04/25 15:48:16;;;;;;;2.85;0.80;;;17.80;82.80;;;;;;6303701;22;20011;-66
2022/04/25 15:50:43;;;;;;;2.22;0.80;;;17.80;81.60;;;;;;6305151;22;20078;-66
2022/04/25 15:53:10;;;;;;;0.90;0.65;;;17.80;80.70;;;;;;6306506;22;20011;-66
2022/04/25 15:58:23;;;;;;;1.48;0.60;;;17.80;79.80;;;;;;6306653;22;20019;-66
2022/04/25 16:00:50;;;;;;;3.25;0.93;;;17.80;78.90;;;;;;6305880;22;20035;-66
2022/04/25 16:03:18;;;;;;;0.77;0.40;;;17.80;78.70;;;;;;6306247;22;19999;-66
2022/04/25 16:05:48;;;;;;;1.13;0.60;;;17.80;78.30;;;;;;6278915;22;19995;-67
2022/04/25 16:08:16;;;;;;;2.72;0.80;;;17.80;79.20;;;;;;6278994;22;20402;-67
2022/04/25 16:10:45;;;;;;;0.95;0.40;;;17.80;78.70;;;;;;6305964;22;20064;-67
2022/04/25 16:13:12;;;;;;;0.68;0.40;;;17.80;78.60;;;;;;6253467;22;20080;-66
2022/04/25 16:15:40;;;;;;;0.85;0.38;;;17.80;78.40;;;;;;6306216;22;19995;-67
2022/04/25 16:18:07;;;;;;;0.55;0.50;;;17.80;78.00;;;;;;6305142;22;20003;-66
2022/04/25 16:20:34;;;;;;;1.60;0.47;;;17.80;78.20;;;;;;6305461;22;20106;-66
2022/04/25 16:23:02;;;;;;;1.15;0.50;;;17.80;78.10;;;;;;6305706;22;19995;-66
2022/04/25 16:25:29;;;;;;;1.15;0.60;;;17.80;78.90;;;;;;6278611;22;20003;-66
2022/04/25 16:27:56;;;;;;;2.25;0.80;;;17.80;78.30;;;;;;6305627;22;19999;-66
2022/04/25 16:30:26;;;;;;;1.48;0.85;;;17.80;78.70;;;;;;6304412;22;20105;-66
2022/04/25 16:32:53;;;;;;;;;;;17.80;77.80;;;;;;6306165;22;20018;-66
2022/04/25 16:35:22;;;;;;;2.25;1.00;;;17.80;78.20;;;;;;6305616;22;19899;-66
2022/04/25 16:37:52;;;;;;;1.25;0.57;;;17.80;78.20;;;;;;6305903;22;20052;-66
2022/04/25 16:40:19;;;;;;;1.88;0.93;;;17.80;78.50;;;;;;6278691;22;20003;-66
2022/04/25 16:42:46;;;;;;;3.83;0.90;;;17.70;78.70;;;;;;6305665;22;20403;-66
2022/04/25 16:45:13;;;;;;;2.70;0.80;;;17.70;78.80;;;;;;6305634;22;19999;-66
2022/04/25 16:47:41;;;;;;;2.15;0.73;;;17.70;79.80;;;;;;6306124;22;20304;-66
2022/04/25 16:50:09;;;;;;;1.83;0.73;;;17.70;80.40;;;;;;6278469;22;20074;-66